Time;durP1;ratioP1;P1;durP2;ratioP2;P2;SDS_P1;SDS_P2;PMS_P1;PMS_P2;Temp;Humidity;BMP_temperature;BMP_pressure;BME280_temperature;BME280_humidity;BME280_pressure;Samples;Min_cycle;Max_cycle;Signal;HPM_P1;HPM_P2
2021/07/31 00:00:13;;;;;;;1.40;0.85;;;25.40;43.30;;;;;;5041903;28;20029;-61
2021/07/31 00:02:39;;;;;;;0.85;0.50;;;25.40;43.30;;;;;;5060304;28;20509;-59
2021/07/31 00:05:06;;;;;;;1.02;0.73;;;25.40;43.40;;;;;;5059142;28;20029;-61
2021/07/31 00:07:32;;;;;;;1.25;0.70;;;25.40;43.40;;;;;;5060418;28;20036;-58
2021/07/31 00:09:58;;;;;;;1.27;0.70;;;25.40;43.40;;;;;;5059941;28;20029;-61
2021/07/31 00:12:24;;;;;;;1.15;0.70;;;25.40;43.40;;;;;;5059468;28;20369;-59
2021/07/31 00:14:50;;;;;;;2.05;0.70;;;25.40;43.40;;;;;;5059487;28;20338;-61
2021/07/31 00:17:15;;;;;;;1.15;0.50;;;25.30;43.40;;;;;;5059950;28;20468;-58
2021/07/31 00:19:41;;;;;;;1.33;0.80;;;25.30;43.40;;;;;;5059595;28;20033;-60
2021/07/31 00:22:07;;;;;;;1.15;0.57;;;25.30;43.50;;;;;;5059614;28;20039;-60
2021/07/31 00:24:33;;;;;;;0.80;0.50;;;25.30;43.50;;;;;;5059578;28;20044;-58
2021/07/31 00:26:58;;;;;;;1.70;0.90;;;25.30;43.50;;;;;;5059928;28;20032;-59
2021/07/31 00:29:24;;;;;;;0.88;0.50;;;25.30;43.60;;;;;;5059928;28;20077;-60
2021/07/31 00:31:50;;;;;;;2.08;0.80;;;25.30;43.60;;;;;;5057203;28;20028;-57
2021/07/31 00:34:16;;;;;;;1.83;0.80;;;25.30;43.60;;;;;;5056665;28;20059;-60
2021/07/31 00:36:42;;;;;;;1.23;0.60;;;25.30;43.70;;;;;;5056372;28;20079;-59
2021/07/31 00:39:07;;;;;;;0.90;0.60;;;25.30;43.70;;;;;;5039191;28;20033;-60
2021/07/31 00:41:33;;;;;;;0.95;0.50;;;25.30;43.70;;;;;;5055618;28;20455;-59
2021/07/31 00:43:59;;;;;;;0.70;0.50;;;25.30;43.80;;;;;;5056562;28;20048;-59
2021/07/31 00:46:25;;;;;;;0.60;0.60;;;25.30;43.80;;;;;;5056173;28;20033;-58
2021/07/31 00:48:52;;;;;;;1.02;0.60;;;25.30;43.90;;;;;;5056349;28;20355;-59
2021/07/31 00:51:18;;;;;;;0.98;0.47;;;25.30;43.90;;;;;;5037907;28;20349;-60
2021/07/31 00:53:45;;;;;;;0.60;0.50;;;25.20;43.90;;;;;;5038032;28;20060;-60
2021/07/31 00:56:12;;;;;;;1.23;0.70;;;25.20;44.00;;;;;;5038363;28;20029;-51
2021/07/31 00:58:38;;;;;;;1.08;0.50;;;25.20;44.00;;;;;;5056138;28;20048;-61
2021/07/31 01:01:09;;;;;;;2.42;1.63;;;25.20;44.10;;;;;;5038181;28;20021;-56
2021/07/31 01:03:36;;;;;;;1.55;0.90;;;25.20;44.10;;;;;;5037904;28;20039;-60
2021/07/31 01:06:02;;;;;;;2.35;0.63;;;25.20;44.10;;;;;;5055945;28;20063;-59
2021/07/31 01:08:28;;;;;;;1.73;0.73;;;25.20;44.20;;;;;;5038296;28;20075;-59
2021/07/31 01:10:56;;;;;;;1.23;0.60;;;25.20;44.20;;;;;;5034467;28;20061;-60
2021/07/31 01:13:22;;;;;;;1.00;0.70;;;25.20;44.30;;;;;;5036123;28;20044;-60
2021/07/31 01:15:58;;;;;;;1.10;0.50;;;25.20;44.40;;;;;;5035353;28;20051;-57
2021/07/31 01:18:25;;;;;;;0.60;0.45;;;25.20;44.40;;;;;;5035925;28;20037;-62
2021/07/31 01:20:51;;;;;;;1.88;0.82;;;25.20;44.40;;;;;;5035720;28;20044;-58
2021/07/31 01:23:17;;;;;;;1.15;0.60;;;25.10;44.40;;;;;;5034330;28;20460;-56
2021/07/31 01:25:43;;;;;;;1.77;0.90;;;25.10;44.40;;;;;;5036017;28;20029;-57
2021/07/31 01:28:10;;;;;;;1.58;0.93;;;25.10;44.50;;;;;;5033940;28;20026;-58
2021/07/31 01:30:36;;;;;;;1.60;0.73;;;25.10;44.50;;;;;;5035500;28;20120;-59
2021/07/31 01:33:02;;;;;;;1.70;0.60;;;25.10;44.50;;;;;;5035438;28;20094;-58
2021/07/31 01:35:28;;;;;;;0.85;0.60;;;25.10;44.50;;;;;;5035824;28;20029;-60
2021/07/31 01:37:55;;;;;;;1.88;0.80;;;25.10;44.60;;;;;;5034285;28;20112;-58
2021/07/31 01:40:22;;;;;;;1.98;0.80;;;25.10;44.60;;;;;;5033533;28;20041;-59
2021/07/31 01:42:48;;;;;;;2.05;0.93;;;25.20;44.70;;;;;;5035533;28;20037;-59
2021/07/31 01:45:14;;;;;;;1.27;0.52;;;25.10;44.70;;;;;;5034237;28;20464;-59
2021/07/31 01:47:43;;;;;;;1.63;0.60;;;25.10;44.70;;;;;;5035310;28;20159;-57
2021/07/31 01:50:09;;;;;;;0.88;0.55;;;25.10;44.70;;;;;;5033731;28;20403;-59
2021/07/31 01:52:43;;;;;;;1.77;0.70;;;25.10;44.80;;;;;;5022227;28;20038;-58
2021/07/31 01:55:10;;;;;;;1.55;0.60;;;25.10;44.90;;;;;;5031625;28;20127;-59
2021/07/31 01:57:36;;;;;;;2.10;0.80;;;25.10;44.90;;;;;;5034477;28;20041;-58
2021/07/31 02:00:17;;;;;;;1.27;0.60;;;25.10;45.00;;;;;;5034663;28;20440;-57
2021/07/31 02:03:01;;;;;;;;;;;25.10;45.10;;;;;;5033590;28;20504;-56
2021/07/31 02:05:32;;;;;;;1.63;0.90;;;25.00;45.10;;;;;;5032703;28;19909;-58
2021/07/31 02:07:58;;;;;;;1.08;0.70;;;25.00;45.20;;;;;;5033798;28;20464;-56
2021/07/31 02:10:26;;;;;;;2.78;0.80;;;25.00;45.20;;;;;;5035654;28;20065;-58
2021/07/31 02:12:54;;;;;;;0.93;0.40;;;25.00;45.30;;;;;;5037010;28;20043;-59
2021/07/31 02:15:22;;;;;;;1.80;0.90;;;25.00;45.30;;;;;;5054315;28;20029;-61
2021/07/31 02:17:53;;;;;;;1.27;0.70;;;25.00;45.40;;;;;;5021192;28;20044;-61
2021/07/31 02:20:21;;;;;;;2.05;0.75;;;25.10;45.50;;;;;;5036212;28;20131;-60
2021/07/31 02:23:00;;;;;;;2.42;0.90;;;25.10;45.50;;;;;;5036816;28;20113;-57
2021/07/31 02:25:44;;;;;;;1.13;0.70;;;25.10;45.60;;;;;;5053848;28;20063;-59
2021/07/31 02:28:28;;;;;;;1.60;0.65;;;25.10;45.60;;;;;;5035293;28;20084;-60
2021/07/31 02:30:54;;;;;;;1.27;0.68;;;25.10;45.60;;;;;;5054619;28;20025;-61
2021/07/31 02:33:21;;;;;;;1.10;0.70;;;25.00;45.60;;;;;;5036907;28;20345;-59
2021/07/31 02:35:49;;;;;;;1.13;0.68;;;25.00;45.60;;;;;;5035090;28;20443;-59
2021/07/31 02:38:41;;;;;;;1.55;0.80;;;25.00;45.60;;;;;;5051062;28;20045;-57
2021/07/31 02:41:07;;;;;;;1.05;0.55;;;25.00;45.60;;;;;;5035876;28;20372;-61
2021/07/31 02:43:36;;;;;;;1.83;0.80;;;25.00;46.20;;;;;;5053821;28;20035;-59
2021/07/31 02:46:04;;;;;;;1.35;0.70;;;25.10;45.70;;;;;;5053758;28;20036;-60
2021/07/31 02:48:32;;;;;;;2.17;0.75;;;25.00;45.70;;;;;;5036454;28;20116;-61
2021/07/31 02:51:03;;;;;;;1.05;0.70;;;25.00;45.60;;;;;;5036181;28;20066;-58
2021/07/31 02:53:48;;;;;;;2.05;0.77;;;25.00;45.70;;;;;;5045910;28;20453;-59
2021/07/31 02:56:14;;;;;;;1.35;0.50;;;25.00;45.70;;;;;;5034768;28;20040;-58
2021/07/31 02:58:40;;;;;;;0.95;0.63;;;25.00;45.70;;;;;;5035952;28;20033;-59
2021/07/31 03:01:09;;;;;;;1.38;0.60;;;25.00;45.80;;;;;;5035576;28;20036;-57
2021/07/31 03:03:37;;;;;;;1.42;0.70;;;25.00;45.80;;;;;;5036525;28;20025;-56
2021/07/31 03:06:03;;;;;;;1.40;0.80;;;25.00;45.80;;;;;;5035449;28;20036;-60
2021/07/31 03:08:32;;;;;;;2.47;0.70;;;25.00;45.80;;;;;;5036297;28;20029;-57
2021/07/31 03:11:03;;;;;;;1.48;0.82;;;25.00;45.80;;;;;;5035327;28;20059;-58
2021/07/31 03:13:30;;;;;;;2.10;0.90;;;25.00;45.80;;;;;;5054121;28;20021;-61
2021/07/31 03:15:56;;;;;;;1.10;0.80;;;24.90;45.80;;;;;;5053401;28;20021;-59
2021/07/31 03:18:23;;;;;;;1.38;0.70;;;24.90;45.80;;;;;;5053792;28;20063;-59
2021/07/31 03:20:51;;;;;;;1.45;0.70;;;24.90;45.90;;;;;;5035551;28;20025;-57
2021/07/31 03:23:24;;;;;;;1.58;0.73;;;24.90;45.90;;;;;;5036298;28;20400;-61
2021/07/31 03:25:57;;;;;;;1.83;0.70;;;24.90;46.00;;;;;;5034260;28;20017;-61
2021/07/31 03:28:23;;;;;;;1.02;0.60;;;24.90;46.00;;;;;;5053351;28;20048;-58
2021/07/31 03:30:54;;;;;;;1.52;0.60;;;24.90;46.10;;;;;;5053756;28;20093;-61
2021/07/31 03:33:20;;;;;;;1.77;0.70;;;24.90;46.10;;;;;;5053368;28;20098;-59
2021/07/31 03:35:46;;;;;;;1.48;0.80;;;24.90;46.20;;;;;;5053458;28;20033;-54
2021/07/31 03:38:31;;;;;;;2.13;0.80;;;24.90;46.30;;;;;;5035488;28;20086;-57
2021/07/31 03:40:59;;;;;;;1.33;0.75;;;24.80;46.30;;;;;;5053359;28;20032;-58
2021/07/31 03:43:31;;;;;;;2.17;0.80;;;24.80;46.30;;;;;;5035210;28;20468;-58
2021/07/31 03:45:56;;;;;;;1.70;0.77;;;24.80;46.40;;;;;;5035734;28;20033;-62
2021/07/31 03:48:23;;;;;;;1.77;0.80;;;24.80;46.40;;;;;;5035428;28;20397;-58
2021/07/31 03:50:50;;;;;;;2.25;0.90;;;24.80;46.50;;;;;;5035310;28;20127;-60
2021/07/31 03:53:23;;;;;;;1.55;0.90;;;24.80;46.50;;;;;;5034783;28;20440;-60
2021/07/31 03:55:52;;;;;;;1.65;1.00;;;24.80;46.60;;;;;;5045438;28;20071;-59
2021/07/31 03:58:18;;;;;;;1.63;0.98;;;24.80;46.70;;;;;;5052537;28;20124;-58
2021/07/31 04:00:44;;;;;;;1.75;0.80;;;24.80;46.70;;;;;;5053786;28;20464;-59
2021/07/31 04:03:11;;;;;;;1.27;0.80;;;24.80;46.80;;;;;;5035535;28;20035;-59
2021/07/31 04:05:39;;;;;;;1.27;0.70;;;24.80;46.80;;;;;;5053588;28;20036;-56
2021/07/31 04:08:23;;;;;;;1.27;0.80;;;24.80;47.00;;;;;;5055462;28;20111;-60
2021/07/31 04:11:07;;;;;;;1.15;0.63;;;24.80;47.60;;;;;;5057073;28;20090;-61
2021/07/31 04:13:54;;;;;;;1.38;0.68;;;24.80;47.10;;;;;;5057060;28;20040;-57
2021/07/31 04:16:27;;;;;;;1.42;0.65;;;24.80;47.10;;;;;;5039373;28;20057;-58
2021/07/31 04:18:53;;;;;;;0.80;0.47;;;24.70;47.10;;;;;;5056601;28;20025;-58
2021/07/31 04:21:19;;;;;;;1.73;0.80;;;24.80;47.20;;;;;;5057133;28;20303;-61
2021/07/31 04:23:45;;;;;;;1.48;0.70;;;24.80;47.30;;;;;;5056182;28;20420;-60
2021/07/31 04:26:14;;;;;;;1.23;0.60;;;24.70;47.30;;;;;;5039014;28;20436;-61
2021/07/31 04:28:41;;;;;;;1.25;0.68;;;24.80;47.40;;;;;;5056070;28;20474;-58
2021/07/31 04:31:10;;;;;;;1.92;0.80;;;24.80;47.40;;;;;;5056752;28;20021;-59
2021/07/31 04:33:36;;;;;;;2.45;0.90;;;24.70;47.40;;;;;;5056749;28;20099;-62
2021/07/31 04:36:02;;;;;;;1.70;0.88;;;24.70;47.40;;;;;;5056631;28;20032;-59
2021/07/31 04:38:30;;;;;;;0.90;0.60;;;24.70;47.50;;;;;;5056338;28;20120;-58
2021/07/31 04:40:56;;;;;;;1.58;0.60;;;24.70;47.50;;;;;;5056224;28;20333;-56
2021/07/31 04:43:22;;;;;;;1.23;0.70;;;24.70;47.50;;;;;;5056053;28;20451;-59
2021/07/31 04:45:48;;;;;;;1.80;0.80;;;24.70;47.50;;;;;;5056811;28;20059;-58
2021/07/31 04:48:13;;;;;;;1.20;0.60;;;24.70;47.60;;;;;;5055990;28;20112;-57
2021/07/31 04:50:40;;;;;;;1.45;0.80;;;24.70;47.60;;;;;;5056454;28;20056;-60
2021/07/31 04:53:06;;;;;;;1.38;0.60;;;24.70;47.60;;;;;;5055267;28;20360;-58
2021/07/31 04:55:31;;;;;;;2.28;0.60;;;24.70;47.60;;;;;;5055251;28;20033;-57
2021/07/31 04:57:57;;;;;;;0.90;0.60;;;24.70;47.70;;;;;;5054887;28;20444;-58
2021/07/31 05:00:23;;;;;;;1.02;0.57;;;24.70;47.70;;;;;;5056275;28;20470;-57
2021/07/31 05:02:49;;;;;;;1.77;0.80;;;24.70;47.70;;;;;;5055736;28;20124;-57
2021/07/31 05:05:15;;;;;;;2.03;0.80;;;24.70;47.70;;;;;;5056141;28;20040;-58
2021/07/31 05:07:42;;;;;;;0.77;0.50;;;24.70;47.80;;;;;;5035227;28;20036;-57
2021/07/31 05:10:08;;;;;;;0.70;0.50;;;24.70;47.80;;;;;;5055693;28;20029;-55
2021/07/31 05:12:34;;;;;;;1.15;0.60;;;24.70;47.80;;;;;;5056109;28;20428;-55
2021/07/31 05:15:00;;;;;;;1.02;0.70;;;24.70;47.80;;;;;;5055897;28;20047;-60
2021/07/31 05:17:26;;;;;;;1.13;0.50;;;24.70;47.80;;;;;;5055756;28;20512;-59
2021/07/31 05:19:52;;;;;;;1.25;0.63;;;24.70;47.80;;;;;;5054672;28;20044;-60
2021/07/31 05:22:18;;;;;;;0.82;0.57;;;24.70;47.80;;;;;;5055230;28;20040;-57
2021/07/31 05:24:44;;;;;;;1.15;0.60;;;24.70;47.80;;;;;;5055542;28;20025;-59
2021/07/31 05:27:10;;;;;;;1.30;0.68;;;24.70;47.90;;;;;;5054828;28;20441;-59
2021/07/31 05:29:36;;;;;;;1.00;0.52;;;24.70;47.90;;;;;;5055501;28;20091;-57
2021/07/31 05:32:02;;;;;;;1.05;0.47;;;24.70;47.90;;;;;;5055274;28;20025;-57
2021/07/31 05:34:28;;;;;;;0.82;0.60;;;24.70;47.90;;;;;;5037975;28;20384;-60
2021/07/31 05:36:54;;;;;;;0.85;0.65;;;24.70;47.90;;;;;;5054895;28;20045;-56
2021/07/31 05:39:20;;;;;;;0.70;0.50;;;24.60;47.90;;;;;;5055600;28;20502;-59
2021/07/31 05:41:46;;;;;;;1.40;0.55;;;24.60;47.90;;;;;;5055114;28;20025;-59
2021/07/31 05:44:11;;;;;;;0.60;0.50;;;24.60;48.00;;;;;;5054584;28;20460;-59
2021/07/31 05:46:37;;;;;;;1.15;0.70;;;24.60;48.00;;;;;;5055042;28;20432;-59
2021/07/31 05:49:03;;;;;;;0.93;0.50;;;24.60;48.10;;;;;;5054376;28;20090;-60
2021/07/31 05:51:29;;;;;;;0.90;0.45;;;24.60;48.10;;;;;;5054622;28;20044;-60
2021/07/31 05:53:54;;;;;;;0.50;0.40;;;24.70;48.10;;;;;;5055492;28;20456;-61
2021/07/31 05:56:20;;;;;;;0.57;0.40;;;24.70;48.20;;;;;;5053502;28;20028;-58
2021/07/31 05:58:46;;;;;;;1.00;0.50;;;24.60;48.20;;;;;;5054727;28;20107;-57
2021/07/31 06:01:12;;;;;;;1.27;0.63;;;24.60;48.20;;;;;;5055163;28;20028;-62
2021/07/31 06:03:38;;;;;;;1.20;0.55;;;24.60;48.20;;;;;;5054167;28;20104;-59
2021/07/31 06:06:04;;;;;;;0.73;0.40;;;24.60;48.20;;;;;;5051680;28;20494;-60
2021/07/31 06:08:31;;;;;;;0.57;0.50;;;24.60;48.20;;;;;;5054164;28;20021;-58
2021/07/31 06:11:03;;;;;;;0.70;0.50;;;24.60;48.20;;;;;;5054657;28;20049;-58
2021/07/31 06:13:30;;;;;;;1.92;0.77;;;24.70;48.20;;;;;;5054450;28;20135;-58
2021/07/31 06:15:56;;;;;;;1.58;0.55;;;24.60;48.20;;;;;;5054998;28;20098;-57
2021/07/31 06:18:22;;;;;;;0.90;0.60;;;24.60;48.20;;;;;;5035868;28;20052;-58
2021/07/31 06:20:48;;;;;;;2.05;0.60;;;24.60;48.20;;;;;;5054305;28;20457;-58
2021/07/31 06:23:14;;;;;;;1.15;0.50;;;24.60;48.20;;;;;;5036722;28;20037;-57
2021/07/31 06:25:40;;;;;;;1.80;0.60;;;24.60;48.20;;;;;;5036004;28;20037;-59
2021/07/31 06:28:06;;;;;;;1.42;0.70;;;24.60;48.20;;;;;;5053864;28;20036;-54
2021/07/31 06:30:31;;;;;;;1.00;0.45;;;24.60;48.30;;;;;;5054012;28;20032;-60
2021/07/31 06:32:57;;;;;;;0.73;0.52;;;24.60;48.90;;;;;;5054043;28;20025;-60
2021/07/31 06:35:23;;;;;;;0.98;0.50;;;24.60;48.40;;;;;;5054633;28;20025;-56
2021/07/31 06:37:49;;;;;;;0.95;0.50;;;24.60;48.40;;;;;;5053778;28;20059;-60
2021/07/31 06:40:14;;;;;;;0.85;0.60;;;24.60;48.40;;;;;;5036122;28;20437;-58
2021/07/31 06:42:40;;;;;;;1.13;0.70;;;24.60;48.40;;;;;;5052396;28;20406;-60
2021/07/31 06:45:06;;;;;;;1.02;0.60;;;24.60;48.40;;;;;;5052216;28;20067;-58
2021/07/31 06:47:33;;;;;;;1.52;0.57;;;24.60;48.50;;;;;;5052388;28;20021;-58
2021/07/31 06:49:59;;;;;;;1.40;0.50;;;24.60;48.50;;;;;;5050766;28;20112;-61
2021/07/31 06:52:25;;;;;;;0.95;0.57;;;24.60;48.50;;;;;;5049526;28;20422;-58
2021/07/31 06:54:50;;;;;;;1.10;0.70;;;24.60;48.50;;;;;;5045183;28;20040;-56
2021/07/31 06:57:16;;;;;;;0.70;0.40;;;24.60;48.60;;;;;;5046279;28;20033;-56
2021/07/31 06:59:42;;;;;;;0.95;0.60;;;24.60;48.60;;;;;;5049120;28;20029;-53
2021/07/31 07:02:08;;;;;;;1.05;0.57;;;24.60;48.60;;;;;;5052348;28;20029;-58
2021/07/31 07:04:34;;;;;;;0.40;0.40;;;24.60;48.60;;;;;;5034867;28;20025;-58
2021/07/31 07:06:59;;;;;;;1.77;0.60;;;24.60;48.60;;;;;;5051845;28;20040;-58
2021/07/31 07:09:26;;;;;;;0.98;0.70;;;24.60;48.60;;;;;;5033671;28;20025;-54
2021/07/31 07:11:52;;;;;;;1.35;0.77;;;24.60;48.60;;;;;;5051146;28;20464;-56
2021/07/31 07:14:17;;;;;;;0.50;0.43;;;24.60;48.70;;;;;;5051504;28;20043;-54
2021/07/31 07:16:43;;;;;;;0.50;0.50;;;24.60;48.70;;;;;;5050740;28;20041;-57
2021/07/31 07:19:09;;;;;;;1.08;0.70;;;24.60;48.80;;;;;;5050727;28;20036;-60
2021/07/31 07:21:35;;;;;;;0.80;0.73;;;24.60;48.80;;;;;;5051929;28;20033;-60
2021/07/31 07:24:01;;;;;;;2.13;0.68;;;24.70;48.90;;;;;;5050628;28;20025;-54
2021/07/31 07:26:27;;;;;;;3.22;0.50;;;24.60;48.80;;;;;;5051022;28;20043;-58
2021/07/31 07:28:53;;;;;;;2.40;0.80;;;24.60;48.90;;;;;;5033725;28;20135;-59
2021/07/31 07:31:18;;;;;;;6.65;0.85;;;24.60;48.90;;;;;;5051029;28;20021;-58
2021/07/31 07:33:44;;;;;;;1.02;0.70;;;24.70;49.00;;;;;;5051458;28;20399;-59
2021/07/31 07:36:16;;;;;;;0.77;0.70;;;24.70;49.00;;;;;;5050729;28;20037;-57
2021/07/31 07:38:43;;;;;;;1.80;0.70;;;24.70;49.60;;;;;;5051239;28;20087;-58
2021/07/31 07:41:10;;;;;;;1.10;0.73;;;24.70;49.00;;;;;;5050711;28;20032;-54
2021/07/31 07:43:36;;;;;;;1.35;0.60;;;24.70;49.10;;;;;;5053339;28;20035;-56
2021/07/31 07:46:03;;;;;;;0.80;0.60;;;24.70;49.10;;;;;;5054926;28;20025;-56
2021/07/31 07:48:29;;;;;;;1.35;0.73;;;24.70;49.10;;;;;;5055301;28;20107;-57
2021/07/31 07:50:55;;;;;;;1.42;0.70;;;24.70;49.10;;;;;;5054774;28;20024;-55
2021/07/31 07:53:21;;;;;;;1.35;0.70;;;24.70;49.10;;;;;;5055058;28;20112;-58
2021/07/31 07:55:47;;;;;;;1.23;0.60;;;24.70;49.10;;;;;;5055219;28;20040;-54
2021/07/31 07:58:13;;;;;;;1.02;0.73;;;24.60;49.10;;;;;;5054936;28;20043;-56
2021/07/31 08:00:42;;;;;;;1.65;0.80;;;24.70;49.20;;;;;;5054339;28;20033;-57
2021/07/31 08:03:09;;;;;;;1.35;1.10;;;24.70;49.20;;;;;;5048706;28;20021;-59
2021/07/31 08:05:38;;;;;;;1.33;1.02;;;24.70;49.30;;;;;;5050729;28;20383;-59
2021/07/31 08:08:05;;;;;;;1.70;0.88;;;24.70;49.30;;;;;;5056003;28;20043;-59
2021/07/31 08:10:31;;;;;;;1.42;0.70;;;24.70;49.40;;;;;;5055989;28;20079;-59
2021/07/31 08:12:57;;;;;;;1.25;0.60;;;24.70;49.40;;;;;;5056220;28;20048;-57
2021/07/31 08:15:23;;;;;;;1.38;0.70;;;24.70;49.40;;;;;;5053906;28;20025;-55
2021/07/31 08:17:49;;;;;;;1.23;0.80;;;24.70;49.40;;;;;;5055052;28;20501;-58
2021/07/31 08:20:14;;;;;;;1.00;0.47;;;24.70;49.40;;;;;;5054886;28;20107;-56
2021/07/31 08:22:40;;;;;;;2.03;0.60;;;24.70;49.40;;;;;;5055581;28;20355;-56
2021/07/31 08:25:08;;;;;;;0.95;0.65;;;24.70;49.50;;;;;;5054409;28;20091;-55
2021/07/31 08:27:34;;;;;;;1.02;0.68;;;24.70;49.50;;;;;;5054900;28;20043;-55
2021/07/31 08:29:59;;;;;;;1.05;0.82;;;24.70;49.50;;;;;;5051703;28;20108;-59
2021/07/31 08:32:25;;;;;;;0.98;0.73;;;24.70;49.50;;;;;;5053216;28;20035;-51
2021/07/31 08:34:51;;;;;;;0.70;0.60;;;24.70;49.70;;;;;;5053395;28;20533;-56
2021/07/31 08:37:18;;;;;;;0.63;0.55;;;24.70;49.80;;;;;;5054508;28;20055;-56
2021/07/31 08:39:44;;;;;;;1.15;0.80;;;24.80;50.00;;;;;;5053996;28;20020;-61
2021/07/31 08:42:13;;;;;;;1.70;0.90;;;24.80;50.00;;;;;;5054578;28;20025;-58
2021/07/31 08:44:40;;;;;;;1.02;0.60;;;24.80;50.00;;;;;;5053885;28;20025;-59
2021/07/31 08:47:08;;;;;;;2.15;0.80;;;24.90;50.10;;;;;;5052645;28;20467;-60
2021/07/31 08:49:38;;;;;;;1.92;0.88;;;24.90;50.10;;;;;;5034129;28;20044;-61
2021/07/31 08:52:06;;;;;;;1.08;0.90;;;25.00;50.00;;;;;;5053659;28;20060;-60
2021/07/31 08:54:32;;;;;;;1.58;0.98;;;25.00;49.90;;;;;;5053177;28;20021;-56
2021/07/31 08:56:58;;;;;;;2.17;1.10;;;25.10;49.80;;;;;;5053648;28;20082;-59
2021/07/31 08:59:28;;;;;;;0.93;0.82;;;25.10;49.70;;;;;;5053895;28;20461;-58
2021/07/31 09:01:55;;;;;;;0.90;0.70;;;25.10;49.50;;;;;;5051578;28;20381;-56
2021/07/31 09:04:22;;;;;;;1.20;0.75;;;25.10;49.40;;;;;;5054054;28;20044;-56
2021/07/31 09:06:50;;;;;;;1.20;0.85;;;25.10;49.30;;;;;;5054631;28;20021;-54
2021/07/31 09:09:29;;;;;;;0.88;0.60;;;25.10;49.20;;;;;;5036078;28;20037;-58
2021/07/31 09:12:00;;;;;;;2.40;0.70;;;25.20;49.10;;;;;;5035742;28;20103;-57
2021/07/31 09:14:27;;;;;;;2.28;0.80;;;25.20;49.10;;;;;;5051598;28;20429;-54
2021/07/31 09:16:53;;;;;;;0.90;0.65;;;25.20;49.10;;;;;;5053021;28;20144;-55
2021/07/31 09:19:19;;;;;;;1.02;0.70;;;25.30;49.10;;;;;;5049846;28;21877;-53
2021/07/31 09:21:46;;;;;;;2.83;0.70;;;25.30;49.00;;;;;;5053135;28;20429;-58
2021/07/31 09:24:22;;;;;;;0.93;0.70;;;25.30;49.00;;;;;;5050541;28;20086;-53
2021/07/31 09:26:53;;;;;;;2.97;1.20;;;25.30;48.90;;;;;;5053617;28;20117;-57
2021/07/31 09:29:33;;;;;;;1.10;0.60;;;25.30;48.90;;;;;;5047435;28;20017;-57
2021/07/31 09:32:02;;;;;;;1.05;0.70;;;25.40;48.90;;;;;;5049304;28;20029;-55
2021/07/31 09:34:31;;;;;;;1.08;0.60;;;25.40;48.80;;;;;;5047276;28;20087;-55
2021/07/31 09:37:18;;;;;;;1.42;0.70;;;25.40;48.80;;;;;;5049140;28;20048;-57
2021/07/31 09:39:58;;;;;;;1.15;0.80;;;25.40;48.70;;;;;;5049876;28;20413;-52
2021/07/31 09:42:38;;;;;;;1.08;0.70;;;25.40;48.70;;;;;;5052577;28;20079;-57
2021/07/31 09:45:07;;;;;;;1.30;0.60;;;25.40;48.70;;;;;;5052419;28;20344;-55
2021/07/31 09:47:33;;;;;;;0.65;0.50;;;25.40;48.70;;;;;;5053281;28;20376;-56
2021/07/31 09:50:01;;;;;;;1.02;0.52;;;25.40;48.70;;;;;;5053236;28;20040;-58
2021/07/31 09:52:27;;;;;;;0.90;0.60;;;25.40;48.70;;;;;;5052379;28;20025;-54
2021/07/31 09:54:57;;;;;;;0.75;0.60;;;25.40;49.40;;;;;;5052933;28;20123;-57
2021/07/31 09:57:30;;;;;;;0.60;0.52;;;25.40;48.80;;;;;;5050283;28;20139;-56
2021/07/31 10:00:03;;;;;;;2.65;0.60;;;25.40;48.80;;;;;;5052487;28;20040;-56
2021/07/31 10:02:35;;;;;;;1.27;0.68;;;25.40;48.90;;;;;;5053091;28;20036;-52
2021/07/31 10:05:01;;;;;;;1.23;0.60;;;25.50;49.00;;;;;;5052812;28;20036;-56
2021/07/31 10:07:27;;;;;;;0.65;0.50;;;25.50;49.00;;;;;;5052762;28;20505;-53
2021/07/31 10:09:53;;;;;;;0.68;0.47;;;25.50;49.10;;;;;;5053857;28;20116;-54
2021/07/31 10:12:30;;;;;;;1.42;0.60;;;25.50;49.20;;;;;;5053592;28;20053;-56
2021/07/31 10:14:57;;;;;;;0.75;0.60;;;25.50;49.20;;;;;;5054248;28;20383;-54
2021/07/31 10:17:30;;;;;;;1.00;0.40;;;25.50;49.20;;;;;;5053731;28;20080;-57
2021/07/31 10:19:57;;;;;;;0.90;0.60;;;25.50;49.30;;;;;;5052563;28;20483;-53
2021/07/31 10:22:42;;;;;;;0.50;0.50;;;25.50;49.30;;;;;;5051970;28;20036;-54
2021/07/31 10:25:11;;;;;;;0.68;0.45;;;25.50;49.40;;;;;;5052824;28;20032;-53
2021/07/31 10:27:38;;;;;;;0.88;0.57;;;25.50;49.50;;;;;;5052325;28;20032;-49
2021/07/31 10:30:22;;;;;;;0.90;0.60;;;25.50;49.50;;;;;;5052690;28;20029;-53
2021/07/31 10:32:48;;;;;;;;;;;25.60;49.70;;;;;;5052212;28;20037;-54
2021/07/31 10:35:36;;;;;;;1.67;0.90;;;25.60;49.70;;;;;;5051423;28;19969;-53
2021/07/31 10:38:10;;;;;;;2.25;0.75;;;25.60;49.70;;;;;;5052060;28;20033;-52
2021/07/31 10:40:41;;;;;;;1.38;0.82;;;25.60;49.70;;;;;;5052326;28;20028;-49
2021/07/31 10:43:11;;;;;;;1.30;0.88;;;25.60;49.60;;;;;;5049962;28;20032;-53
2021/07/31 10:45:37;;;;;;;1.30;0.70;;;25.60;49.60;;;;;;5051785;28;20465;-48
2021/07/31 10:48:06;;;;;;;1.63;0.80;;;25.60;49.60;;;;;;5052107;28;20039;-54
2021/07/31 10:50:31;;;;;;;1.23;0.80;;;25.60;49.60;;;;;;5044258;28;20340;-50
2021/07/31 10:53:10;;;;;;;1.67;0.70;;;25.60;49.60;;;;;;5049477;28;20326;-52
2021/07/31 10:55:36;;;;;;;1.50;0.68;;;25.60;49.60;;;;;;5052213;28;20036;-56
2021/07/31 10:58:14;;;;;;;1.50;0.85;;;25.60;49.50;;;;;;5048638;28;20095;-51
2021/07/31 11:00:41;;;;;;;1.13;0.80;;;25.60;50.10;;;;;;5050624;28;20112;-50
2021/07/31 11:03:23;;;;;;;0.95;0.70;;;25.70;49.60;;;;;;5051781;28;20037;-48
2021/07/31 11:05:49;;;;;;;1.08;0.63;;;25.70;49.60;;;;;;5053132;28;20040;-52
2021/07/31 11:09:02;;;;;;;1.55;0.80;;;25.70;49.60;;;;;;5051220;28;20525;-49
2021/07/31 11:11:28;;;;;;;0.85;0.60;;;25.70;49.60;;;;;;4994989;28;20041;-52
2021/07/31 11:13:55;;;;;;;1.15;0.60;;;25.70;49.60;;;;;;5050306;28;20848;-53
2021/07/31 11:16:22;;;;;;;0.80;0.65;;;25.70;49.60;;;;;;5050403;28;20029;-53
2021/07/31 11:19:01;;;;;;;0.73;0.60;;;25.70;49.60;;;;;;5046038;28;20048;-56
2021/07/31 11:21:32;;;;;;;1.75;0.90;;;25.80;49.60;;;;;;5048385;28;20029;-58
2021/07/31 11:24:01;;;;;;;1.17;0.73;;;25.80;49.70;;;;;;5054206;28;20039;-56
2021/07/31 11:26:36;;;;;;;1.65;0.77;;;25.80;49.90;;;;;;5050888;28;20025;-54
2021/07/31 11:29:09;;;;;;;2.17;0.70;;;25.90;49.90;;;;;;5051270;28;20537;-50
2021/07/31 11:31:38;;;;;;;0.83;0.70;;;25.90;49.90;;;;;;5047535;28;20029;-54
2021/07/31 11:34:08;;;;;;;1.40;0.65;;;25.90;49.90;;;;;;5050611;28;20035;-50
2021/07/31 11:36:37;;;;;;;0.90;0.68;;;25.90;49.80;;;;;;5051275;28;20029;-51
2021/07/31 11:39:07;;;;;;;0.85;0.70;;;25.90;49.80;;;;;;5033287;28;20404;-52
2021/07/31 11:41:41;;;;;;;1.50;0.70;;;25.90;49.70;;;;;;5050666;28;20040;-51
2021/07/31 11:44:07;;;;;;;1.13;0.70;;;25.90;49.60;;;;;;5051639;28;20024;-50
2021/07/31 11:46:39;;;;;;;0.60;0.60;;;25.90;49.60;;;;;;5050615;28;20029;-52
2021/07/31 11:49:24;;;;;;;0.68;0.52;;;25.90;49.60;;;;;;5051044;28;20021;-52
2021/07/31 11:51:53;;;;;;;4.03;0.70;;;25.90;49.50;;;;;;5050578;28;20520;-54
2021/07/31 11:54:20;;;;;;;0.55;0.55;;;25.90;50.20;;;;;;5050043;28;20090;-62
2021/07/31 11:56:46;;;;;;;1.05;0.80;;;25.90;49.60;;;;;;5050223;28;20049;-53
2021/07/31 11:59:26;;;;;;;0.80;0.70;;;25.90;49.60;;;;;;5051061;28;20043;-61
2021/07/31 12:01:55;;;;;;;1.45;1.00;;;25.90;49.80;;;;;;5050778;28;20033;-56
2021/07/31 12:04:43;;;;;;;1.70;0.90;;;25.90;50.00;;;;;;5050924;28;20356;-56
2021/07/31 12:07:19;;;;;;;1.30;0.88;;;26.00;50.20;;;;;;5050568;28;20348;-51
2021/07/31 12:10:10;;;;;;;1.80;0.88;;;26.00;50.60;;;;;;5051090;28;20644;-60
2021/07/31 12:12:39;;;;;;;1.02;0.70;;;26.10;50.40;;;;;;5049984;28;20045;-55
2021/07/31 12:15:10;;;;;;;0.77;0.73;;;26.10;50.50;;;;;;5050724;28;20061;-60
2021/07/31 12:17:39;;;;;;;0.82;0.68;;;26.10;50.50;;;;;;5050640;28;20041;-58
2021/07/31 12:20:06;;;;;;;1.25;0.77;;;26.20;50.50;;;;;;5050487;28;20073;-57
2021/07/31 12:22:34;;;;;;;1.95;1.00;;;26.20;50.50;;;;;;5046282;28;20475;-54
2021/07/31 12:25:08;;;;;;;1.10;0.88;;;26.20;50.40;;;;;;5032578;28;20460;-55
2021/07/31 12:28:12;;;;;;;1.23;0.80;;;26.20;50.40;;;;;;5049969;28;20032;-57
2021/07/31 12:30:40;;;;;;;0.98;0.70;;;26.30;50.30;;;;;;5053654;28;20043;-59
2021/07/31 12:33:06;;;;;;;1.20;0.75;;;26.30;50.20;;;;;;5053879;28;20079;-55
2021/07/31 12:35:43;;;;;;;1.48;1.00;;;26.30;50.20;;;;;;5051940;28;20028;-58
2021/07/31 12:38:18;;;;;;;1.50;0.95;;;26.30;50.00;;;;;;5053794;28;20041;-56
2021/07/31 12:40:45;;;;;;;0.70;0.70;;;26.30;50.00;;;;;;5052602;28;20115;-59
2021/07/31 12:43:13;;;;;;;1.98;0.88;;;26.30;49.90;;;;;;5053901;28;20029;-55
2021/07/31 12:45:44;;;;;;;1.23;0.73;;;26.40;49.90;;;;;;5051539;28;20444;-57
2021/07/31 12:48:15;;;;;;;1.05;0.77;;;26.40;49.80;;;;;;5050948;28;20368;-56
2021/07/31 12:50:42;;;;;;;1.27;0.60;;;26.40;49.70;;;;;;5052225;28;20131;-57
2021/07/31 12:53:11;;;;;;;2.17;0.70;;;26.40;49.80;;;;;;5053288;28;20033;-58
2021/07/31 12:55:38;;;;;;;1.58;1.00;;;26.40;49.70;;;;;;5053528;28;20040;-57